Time;durP1;ratioP1;P1;durP2;ratioP2;P2;SDS_P1;SDS_P2;PMS_P1;PMS_P2;Temp;Humidity;BMP_temperature;BMP_pressure;BME280_temperature;BME280_humidity;BME280_pressure;Samples;Min_cycle;Max_cycle;Signal;HPM_P1;HPM_P2
2022/01/18 00:00:36;;;;;;;17.77;10.73;;;2.00;96.10;;;;;;5047388;28;20071;-69
2022/01/18 00:03:02;;;;;;;15.30;9.07;;;2.00;95.50;;;;;;5041837;28;20071;-69
2022/01/18 00:05:29;;;;;;;15.02;10.18;;;2.00;95.20;;;;;;5046298;28;20417;-68
2022/01/18 00:07:54;;;;;;;13.88;9.57;;;2.10;95.70;;;;;;5053915;28;20031;-68
2022/01/18 00:10:23;;;;;;;14.88;9.57;;;2.10;95.90;;;;;;5043061;28;20326;-68
2022/01/18 00:15:54;;;;;;;13.82;8.77;;;2.10;96.40;;;;;;5050419;28;20034;-69
2022/01/18 00:18:20;;;;;;;16.33;10.15;;;2.10;96.80;;;;;;5043445;28;20009;-68
2022/01/18 00:23:23;;;;;;;14.00;8.88;;;2.00;96.50;;;;;;5043938;28;20109;-69
2022/01/18 00:25:53;;;;;;;17.55;10.18;;;2.00;95.90;;;;;;5043750;28;20777;-69
2022/01/18 00:28:20;;;;;;;17.42;10.85;;;2.00;96.70;;;;;;5047889;28;20035;-69
2022/01/18 00:33:26;;;;;;;16.83;9.88;;;1.90;96.50;;;;;;5056260;28;20062;-69
2022/01/18 00:36:00;;;;;;;14.18;9.32;;;1.70;96.00;;;;;;5050124;28;20027;-67
2022/01/18 00:38:32;;;;;;;16.35;10.27;;;1.70;95.70;;;;;;5043674;28;20111;-68
2022/01/18 00:40:59;;;;;;;15.98;10.15;;;1.80;95.30;;;;;;5049207;28;20422;-68
2022/01/18 00:43:25;;;;;;;18.98;10.57;;;1.80;95.30;;;;;;5044127;28;20071;-68
2022/01/18 00:45:51;;;;;;;21.15;11.82;;;1.70;95.00;;;;;;5044477;28;20033;-69
2022/01/18 00:48:17;;;;;;;15.25;10.20;;;1.70;94.80;;;;;;5043170;28;20035;-68
2022/01/18 00:50:44;;;;;;;12.68;8.48;;;1.70;94.30;;;;;;5047634;28;20040;-69
2022/01/18 00:53:10;;;;;;;14.60;8.93;;;1.80;93.60;;;;;;5043384;28;20103;-69
2022/01/18 00:55:47;;;;;;;14.15;8.38;;;1.90;94.20;;;;;;5046963;28;20029;-71
2022/01/18 00:58:14;;;;;;;17.77;10.80;;;1.80;94.20;;;;;;5051502;28;20345;-69
2022/01/18 01:00:40;;;;;;;15.40;9.45;;;1.80;94.20;;;;;;5052639;28;20083;-69
2022/01/18 01:03:06;;;;;;;18.85;10.65;;;1.70;94.20;;;;;;5038647;28;20365;-68
2022/01/18 01:05:31;;;;;;;18.70;10.82;;;1.70;93.80;;;;;;5048960;28;20041;-68
2022/01/18 01:07:59;;;;;;;16.15;9.70;;;1.60;93.30;;;;;;5045534;28;20036;-68
2022/01/18 01:10:25;;;;;;;14.25;8.73;;;1.70;93.20;;;;;;5040746;28;20025;-69
2022/01/18 01:12:51;;;;;;;17.13;10.15;;;1.70;92.60;;;;;;5044771;28;20051;-68
2022/01/18 01:15:19;;;;;;;17.17;10.23;;;1.70;92.90;;;;;;5040257;28;20091;-69
2022/01/18 01:17:52;;;;;;;16.67;10.05;;;1.70;92.50;;;;;;5043328;28;20036;-69
2022/01/18 01:34:34;;;;;;;15.15;8.95;;;2.00;92.20;;;;;;5043801;28;20039;-68
2022/01/18 01:45:10;;;;;;;18.70;10.93;;;1.70;92.80;;;;;;5059353;28;20041;-69
2022/01/18 01:47:38;;;;;;;17.73;10.70;;;1.60;92.60;;;;;;5045031;28;20108;-69
2022/01/18 01:50:16;;;;;;;16.67;10.05;;;1.60;92.00;;;;;;5044611;28;20306;-69
2022/01/18 01:52:42;;;;;;;14.95;9.52;;;1.60;91.50;;;;;;5051924;28;20025;-69
2022/01/18 01:55:09;;;;;;;17.00;9.55;;;1.60;91.60;;;;;;5037848;28;20030;-70
2022/01/18 01:57:35;;;;;;;20.52;11.40;;;1.60;91.70;;;;;;5049945;28;20423;-68
2022/01/18 02:00:11;;;;;;;17.45;10.25;;;1.70;91.10;;;;;;5043081;28;20030;-68
2022/01/18 02:02:36;;;;;;;17.92;10.20;;;1.70;91.30;;;;;;5049062;28;20029;-68
2022/01/18 02:05:03;;;;;;;16.02;8.95;;;1.70;91.30;;;;;;5043774;28;20139;-68
2022/01/18 02:07:29;;;;;;;18.80;10.75;;;1.70;91.10;;;;;;5044104;28;20026;-69
2022/01/18 02:09:55;;;;;;;15.65;9.45;;;1.70;91.30;;;;;;5038376;28;20022;-69
2022/01/18 02:12:21;;;;;;;15.98;9.70;;;1.70;91.30;;;;;;5063992;28;20024;-70
2022/01/18 02:14:52;;;;;;;13.88;8.45;;;1.70;91.00;;;;;;5039950;28;20034;-70
2022/01/18 02:22:48;;;;;;;15.93;9.32;;;1.50;91.10;;;;;;5047003;28;19916;-69
2022/01/18 02:25:13;;;;;;;19.48;10.38;;;1.50;90.60;;;;;;5049666;28;20030;-69
2022/01/18 02:27:42;;;;;;;16.95;10.18;;;1.40;90.90;;;;;;5042350;28;20037;-69
2022/01/18 02:30:08;;;;;;;19.08;10.93;;;1.40;90.70;;;;;;5044627;28;20029;-69
2022/01/18 02:32:39;;;;;;;21.02;11.07;;;1.40;90.40;;;;;;5042738;28;20327;-69
2022/01/18 02:35:06;;;;;;;18.65;10.88;;;1.40;90.20;;;;;;5049613;28;20038;-69
2022/01/18 02:37:31;;;;;;;19.13;10.93;;;1.40;90.00;;;;;;5041434;28;20028;-70
2022/01/18 02:39:57;;;;;;;19.73;10.57;;;1.50;89.80;;;;;;5044912;28;20027;-69
2022/01/18 02:42:40;;;;;;;19.50;10.43;;;1.50;89.90;;;;;;5047789;28;20013;-70
2022/01/18 02:45:07;;;;;;;19.75;10.25;;;1.50;90.00;;;;;;5041316;28;20024;-70
2022/01/18 02:47:33;;;;;;;18.10;9.95;;;1.50;90.00;;;;;;5042322;28;20108;-70
2022/01/18 02:49:58;;;;;;;16.35;10.07;;;1.50;89.90;;;;;;5046260;28;20472;-69
2022/01/18 02:52:24;;;;;;;17.85;10.48;;;1.50;89.70;;;;;;5042087;28;20049;-70
2022/01/18 02:54:49;;;;;;;17.13;9.80;;;1.50;90.00;;;;;;5040196;28;20105;-70
2022/01/18 02:57:24;;;;;;;16.67;9.90;;;1.50;90.00;;;;;;5045389;28;20051;-70
2022/01/18 03:00:04;;;;;;;18.15;10.20;;;1.50;89.70;;;;;;5044595;28;20480;-69
2022/01/18 03:05:15;;;;;;;19.98;10.13;;;1.50;89.80;;;;;;5052093;28;20071;-69
2022/01/18 03:07:42;;;;;;;14.75;8.45;;;1.60;89.50;;;;;;5050719;28;20053;-69
2022/01/18 03:10:11;;;;;;;19.17;9.43;;;1.60;88.80;;;;;;5039567;28;20393;-70
2022/01/18 03:12:37;;;;;;;14.23;8.50;;;1.70;90.00;;;;;;5038071;28;20425;-69
2022/01/18 03:15:04;;;;;;;15.90;8.70;;;1.70;89.90;;;;;;5050498;28;20028;-69
2022/01/18 03:17:29;;;;;;;14.93;8.77;;;1.70;90.20;;;;;;5036542;28;20044;-70
2022/01/18 03:19:55;;;;;;;15.68;9.18;;;1.70;90.00;;;;;;5044344;28;20024;-70
2022/01/18 03:22:21;;;;;;;15.50;8.68;;;1.70;89.90;;;;;;5041830;28;20033;-70
2022/01/18 03:24:48;;;;;;;15.10;8.10;;;1.70;90.00;;;;;;5040447;28;20049;-69
2022/01/18 03:30:03;;;;;;;18.52;9.70;;;1.80;89.70;;;;;;5043187;28;20040;-68
2022/01/18 03:32:29;;;;;;;13.70;8.05;;;1.70;90.60;;;;;;5042301;28;20466;-68
2022/01/18 03:34:54;;;;;;;15.02;9.07;;;1.70;90.30;;;;;;5043151;28;20120;-68
2022/01/18 03:37:20;;;;;;;20.52;10.50;;;1.70;90.00;;;;;;5038540;28;20329;-68
2022/01/18 03:39:46;;;;;;;17.83;8.60;;;1.70;90.50;;;;;;5040646;28;20464;-70
2022/01/18 03:44:58;;;;;;;14.13;8.10;;;1.80;89.90;;;;;;5044504;28;20075;-70
2022/01/18 03:47:27;;;;;;;16.23;8.68;;;1.80;89.50;;;;;;5040404;28;20026;-70
2022/01/18 03:49:52;;;;;;;13.70;8.38;;;1.80;90.10;;;;;;5043749;28;20330;-70
2022/01/18 03:52:18;;;;;;;14.50;7.38;;;1.80;89.90;;;;;;5043173;28;20032;-69
2022/01/18 03:54:47;;;;;;;11.00;6.57;;;1.90;90.10;;;;;;5040344;28;20438;-69
2022/01/18 03:57:16;;;;;;;14.00;8.02;;;1.90;89.80;;;;;;5041561;28;20032;-69
2022/01/18 03:59:43;;;;;;;13.13;7.95;;;1.90;89.90;;;;;;5044914;28;20036;-69
2022/01/18 04:02:09;;;;;;;12.27;6.82;;;1.90;89.30;;;;;;5037760;28;20030;-68
2022/01/18 04:04:35;;;;;;;17.70;9.05;;;1.90;89.60;;;;;;5047851;28;20018;-69
2022/01/18 04:07:01;;;;;;;13.07;7.28;;;1.90;89.90;;;;;;5048160;28;20029;-69
2022/01/18 04:09:27;;;;;;;14.65;8.27;;;1.90;90.00;;;;;;5041675;28;20040;-69
2022/01/18 04:11:53;;;;;;;13.25;8.02;;;1.90;90.00;;;;;;5043926;28;20029;-69
2022/01/18 04:14:19;;;;;;;13.00;7.63;;;1.90;90.00;;;;;;5048448;28;20079;-70
2022/01/18 04:17:01;;;;;;;12.98;7.88;;;1.90;90.10;;;;;;5040921;28;20033;-68
2022/01/18 04:27:33;;;;;;;17.23;10.07;;;1.90;89.80;;;;;;5041558;28;20067;-69
2022/01/18 04:29:59;;;;;;;17.50;8.27;;;1.90;90.10;;;;;;5044145;28;20029;-69
2022/01/18 04:32:25;;;;;;;15.25;8.57;;;1.90;90.20;;;;;;5048553;28;20477;-69
2022/01/18 04:34:50;;;;;;;15.40;8.00;;;1.90;89.70;;;;;;5042963;28;20411;-69
2022/01/18 04:37:16;;;;;;;17.58;9.65;;;1.90;89.80;;;;;;5051340;28;20112;-68
2022/01/18 04:39:46;;;;;;;16.80;10.20;;;1.90;89.60;;;;;;5038992;28;20501;-69
2022/01/18 04:42:19;;;;;;;15.85;9.05;;;1.90;89.90;;;;;;5037686;28;20418;-69
2022/01/18 04:50:13;;;;;;;18.25;9.63;;;2.00;89.90;;;;;;5042169;28;20436;-70
2022/01/18 04:52:39;;;;;;;16.83;8.20;;;1.90;90.30;;;;;;5045901;28;20042;-69
2022/01/18 04:55:05;;;;;;;16.35;8.32;;;1.90;90.30;;;;;;5045506;28;20040;-69
2022/01/18 05:00:15;;;;;;;14.48;8.35;;;1.90;89.90;;;;;;5047841;28;20025;-68
2022/01/18 05:02:41;;;;;;;72.20;34.13;;;1.90;89.90;;;;;;5054433;28;20026;-69
2022/01/18 05:05:10;;;;;;;47.00;24.90;;;1.90;90.10;;;;;;5045789;28;20029;-69
2022/01/18 05:07:36;;;;;;;25.75;14.18;;;1.90;89.70;;;;;;5044072;28;20018;-69
2022/01/18 05:10:02;;;;;;;18.42;9.88;;;2.00;89.40;;;;;;5042961;28;20447;-69
2022/01/18 05:13:11;;;;;;;40.38;19.48;;;2.00;89.30;;;;;;5047143;28;20319;-68
2022/01/18 05:16:22;;;;;;;26.48;13.23;;;2.00;89.50;;;;;;5041936;28;20038;-69
2022/01/18 05:23:11;;;;;;;16.40;9.02;;;1.90;89.60;;;;;;5046309;28;20036;-69
2022/01/18 05:25:37;;;;;;;23.98;14.48;;;2.00;88.20;;;;;;5053418;28;20033;-68
2022/01/18 05:28:04;;;;;;;29.38;16.05;;;2.10;89.50;;;;;;5048050;28;20053;-69
2022/01/18 05:30:31;;;;;;;45.55;25.17;;;2.10;89.10;;;;;;5048669;28;20025;-69
2022/01/18 05:32:58;;;;;;;37.10;20.60;;;2.10;90.00;;;;;;5047508;28;20434;-70
2022/01/18 05:35:24;;;;;;;49.75;25.02;;;2.10;90.20;;;;;;5044284;28;20037;-69
2022/01/18 05:37:50;;;;;;;33.28;19.25;;;2.10;90.50;;;;;;5044734;28;20113;-69
2022/01/18 05:40:23;;;;;;;34.22;19.30;;;2.10;90.30;;;;;;5046662;28;20017;-68
2022/01/18 05:42:49;;;;;;;26.17;14.18;;;2.10;90.10;;;;;;5044543;28;20473;-68
2022/01/18 05:45:17;;;;;;;21.90;12.88;;;2.00;90.10;;;;;;5043197;28;20060;-69
2022/01/18 05:47:43;;;;;;;28.35;14.90;;;2.00;90.10;;;;;;5046120;28;20430;-69
2022/01/18 05:50:10;;;;;;;28.15;16.95;;;2.00;89.10;;;;;;5042906;28;21545;-68
2022/01/18 05:52:36;;;;;;;33.13;17.40;;;2.20;88.60;;;;;;5048637;28;20068;-68
2022/01/18 05:55:04;;;;;;;38.05;22.35;;;2.20;89.40;;;;;;5051704;28;20025;-68
2022/01/18 05:57:30;;;;;;;32.92;18.65;;;2.10;90.60;;;;;;5056839;28;20025;-68
2022/01/18 06:00:03;;;;;;;36.45;17.48;;;2.10;90.30;;;;;;5059390;28;20024;-69
2022/01/18 06:02:43;;;;;;;28.30;14.57;;;2.10;90.60;;;;;;5052185;28;20032;-68
2022/01/18 06:07:55;;;;;;;24.10;10.82;;;2.00;90.50;;;;;;5051269;28;20086;-69
2022/01/18 06:10:20;;;;;;;20.33;10.93;;;1.90;90.30;;;;;;5042769;28;20025;-69
2022/01/18 06:12:46;;;;;;;21.85;12.23;;;1.90;90.30;;;;;;5038553;28;20155;-69
2022/01/18 06:15:15;;;;;;;25.52;13.57;;;2.00;89.00;;;;;;5056975;28;20021;-69
2022/01/18 06:17:45;;;;;;;28.10;16.17;;;2.00;88.90;;;;;;5045822;28;20029;-69
2022/01/18 06:20:11;;;;;;;38.40;20.83;;;2.00;90.40;;;;;;5040282;28;20017;-69
2022/01/18 06:22:37;;;;;;;42.13;22.55;;;2.00;90.60;;;;;;5048683;28;20028;-68
2022/01/18 06:25:04;;;;;;;45.03;23.48;;;2.00;90.70;;;;;;5045024;28;20430;-68
2022/01/18 06:27:29;;;;;;;55.00;29.77;;;2.00;90.00;;;;;;5052197;28;20075;-67
2022/01/18 06:29:55;;;;;;;62.50;34.22;;;2.00;90.00;;;;;;5042367;28;20021;-67
2022/01/18 06:32:22;;;;;;;42.22;23.55;;;1.90;90.00;;;;;;5050442;28;20414;-68
2022/01/18 06:34:48;;;;;;;82.90;37.33;;;1.80;89.70;;;;;;5046568;28;20032;-70
2022/01/18 06:37:14;;;;;;;71.63;33.75;;;1.90;89.30;;;;;;5036918;28;20029;-70
2022/01/18 06:39:39;;;;;;;50.63;26.60;;;1.90;89.40;;;;;;5043033;28;20031;-69
2022/01/18 06:42:10;;;;;;;62.63;32.35;;;1.90;88.80;;;;;;5039913;28;20029;-69
2022/01/18 06:44:36;;;;;;;47.17;25.83;;;2.00;89.10;;;;;;5044794;28;20414;-69
2022/01/18 06:47:04;;;;;;;62.10;29.50;;;2.00;89.00;;;;;;5042124;28;20083;-69
2022/01/18 06:49:30;;;;;;;58.38;28.42;;;2.00;89.50;;;;;;5048788;28;20035;-68
2022/01/18 06:51:56;;;;;;;57.03;27.30;;;2.00;89.70;;;;;;5049768;28;20100;-68
2022/01/18 06:54:21;;;;;;;46.75;26.75;;;1.90;89.60;;;;;;5047531;28;20033;-69
2022/01/18 06:56:49;;;;;;;55.08;27.85;;;1.90;89.20;;;;;;5043680;28;20024;-69
2022/01/18 06:59:18;;;;;;;63.90;29.63;;;1.90;89.30;;;;;;5043268;28;20021;-69
2022/01/18 07:01:44;;;;;;;37.92;22.17;;;2.00;89.00;;;;;;5043910;28;20036;-68
2022/01/18 07:04:09;;;;;;;49.35;25.02;;;2.00;88.30;;;;;;5037820;28;20021;-69
2022/01/18 07:06:35;;;;;;;33.42;19.80;;;2.00;88.40;;;;;;5052606;28;20033;-69
2022/01/18 07:09:02;;;;;;;58.53;27.20;;;2.00;88.20;;;;;;5048611;28;20048;-69
2022/01/18 07:11:28;;;;;;;44.83;22.88;;;2.00;88.10;;;;;;5041906;28;20358;-68
2022/01/18 07:13:54;;;;;;;37.08;21.67;;;2.10;87.70;;;;;;5036694;28;20114;-69
2022/01/18 07:16:20;;;;;;;42.15;22.40;;;2.10;87.80;;;;;;5036007;28;20109;-69
2022/01/18 07:18:45;;;;;;;57.67;25.33;;;2.10;88.40;;;;;;5037932;28;20315;-67
2022/01/18 07:21:22;;;;;;;144.88;71.63;;;2.10;88.40;;;;;;5035520;28;20021;-67
2022/01/18 07:23:51;;;;;;;80.03;40.28;;;2.10;88.60;;;;;;5036611;28;20065;-67
2022/01/18 07:26:17;;;;;;;54.83;26.13;;;2.10;88.40;;;;;;5036065;28;20025;-67
2022/01/18 07:28:46;;;;;;;59.70;25.42;;;2.10;87.90;;;;;;5035604;28;20025;-68
2022/01/18 07:31:12;;;;;;;52.10;24.73;;;2.10;88.40;;;;;;5046516;28;20026;-68
2022/01/18 07:33:39;;;;;;;58.50;27.48;;;2.10;88.00;;;;;;5049402;28;20083;-68
2022/01/18 07:36:05;;;;;;;57.72;24.63;;;2.10;87.90;;;;;;5039857;28;20021;-69
2022/01/18 07:38:31;;;;;;;67.20;28.05;;;2.10;87.60;;;;;;5034980;28;20025;-69
2022/01/18 07:41:00;;;;;;;50.63;22.77;;;2.20;87.70;;;;;;5035546;28;20024;-68
2022/01/18 07:43:28;;;;;;;108.93;38.05;;;2.20;87.60;;;;;;5039802;28;20321;-69
2022/01/18 07:45:54;;;;;;;63.22;30.17;;;2.20;88.30;;;;;;5043105;28;20096;-69
2022/01/18 07:48:23;;;;;;;43.72;21.63;;;2.10;88.20;;;;;;5042194;28;20417;-69
2022/01/18 07:50:53;;;;;;;59.97;23.83;;;2.20;87.40;;;;;;5054995;28;20433;-69
2022/01/18 07:53:22;;;;;;;63.88;28.27;;;2.30;87.70;;;;;;5047878;28;20088;-69
2022/01/18 07:55:47;;;;;;;73.30;36.25;;;2.30;87.70;;;;;;5046983;28;20426;-69
2022/01/18 07:58:13;;;;;;;63.75;30.00;;;2.30;87.80;;;;;;5049472;28;20120;-69
2022/01/18 08:00:39;;;;;;;65.68;24.67;;;2.20;88.10;;;;;;5035941;28;20022;-69
2022/01/18 08:03:05;;;;;;;55.10;25.15;;;2.20;88.50;;;;;;5035000;28;20402;-69
2022/01/18 08:05:30;;;;;;;94.50;29.83;;;2.10;88.30;;;;;;5039770;28;20029;-69
2022/01/18 08:07:56;;;;;;;70.57;29.00;;;2.10;87.90;;;;;;5037085;28;20026;-69
2022/01/18 08:10:23;;;;;;;45.65;24.88;;;2.10;88.30;;;;;;5042384;28;20025;-69
2022/01/18 08:12:49;;;;;;;52.58;22.88;;;2.20;87.80;;;;;;5054932;28;20021;-68
2022/01/18 08:15:19;;;;;;;44.83;22.52;;;2.20;87.80;;;;;;5055731;28;20081;-69
2022/01/18 08:17:47;;;;;;;40.05;20.20;;;2.20;88.20;;;;;;5047783;28;20029;-69
2022/01/18 08:20:14;;;;;;;44.63;22.50;;;2.20;87.60;;;;;;5054582;28;20108;-69
2022/01/18 08:22:41;;;;;;;42.55;21.67;;;2.30;88.30;;;;;;5055270;28;20864;-69
2022/01/18 08:25:07;;;;;;;53.65;23.20;;;2.30;88.00;;;;;;5037905;28;20026;-69
2022/01/18 08:27:33;;;;;;;51.67;22.33;;;2.30;87.90;;;;;;5043000;28;20021;-69
2022/01/18 08:29:58;;;;;;;53.83;23.98;;;2.30;88.30;;;;;;5042885;28;20358;-70
2022/01/18 08:32:24;;;;;;;52.03;24.20;;;2.30;88.60;;;;;;5045232;28;20057;-69
2022/01/18 08:34:50;;;;;;;56.95;23.30;;;2.20;88.60;;;;;;5059499;28;20108;-69
2022/01/18 08:37:15;;;;;;;77.20;26.38;;;2.20;88.70;;;;;;5056626;28;20129;-69
2022/01/18 08:39:41;;;;;;;53.20;23.25;;;2.30;89.20;;;;;;5039595;28;20026;-69
2022/01/18 08:42:08;;;;;;;41.42;20.38;;;2.20;89.10;;;;;;5046237;28;20345;-69
2022/01/18 08:44:35;;;;;;;43.30;21.27;;;2.10;89.20;;;;;;5059384;28;20049;-69
2022/01/18 08:47:00;;;;;;;45.50;20.77;;;2.20;88.70;;;;;;5052471;28;20414;-68
2022/01/18 08:49:26;;;;;;;31.13;16.50;;;2.20;88.30;;;;;;5057325;28;20086;-69
2022/01/18 08:51:52;;;;;;;37.85;17.02;;;2.20;88.70;;;;;;5054420;28;20029;-70
2022/01/18 08:54:18;;;;;;;36.10;16.98;;;2.30;89.20;;;;;;5039049;28;20021;-69
2022/01/18 08:56:43;;;;;;;28.13;13.75;;;2.20;89.40;;;;;;5040715;28;20057;-69
2022/01/18 08:59:09;;;;;;;24.52;13.05;;;2.30;89.50;;;;;;5042929;28;20342;-69
2022/01/18 09:01:35;;;;;;;36.80;15.95;;;2.40;89.50;;;;;;5037707;28;20029;-69
2022/01/18 09:04:01;;;;;;;29.38;15.45;;;2.40;90.80;;;;;;5040241;28;20086;-69
2022/01/18 09:06:30;;;;;;;26.85;13.85;;;2.50;91.00;;;;;;5039076;28;20033;-68
2022/01/18 09:08:57;;;;;;;27.65;13.65;;;2.50;91.50;;;;;;5043365;28;20033;-69
2022/01/18 09:11:24;;;;;;;27.00;14.77;;;2.60;92.30;;;;;;5048105;28;20029;-69
2022/01/18 09:13:52;;;;;;;25.38;13.05;;;2.60;93.30;;;;;;5037803;28;20377;-68
2022/01/18 09:16:19;;;;;;;20.88;12.00;;;2.60;93.70;;;;;;5054848;28;20052;-67
2022/01/18 09:18:44;;;;;;;22.08;10.85;;;2.70;94.60;;;;;;5052063;28;20428;-68
2022/01/18 09:21:10;;;;;;;21.55;10.98;;;2.80;94.90;;;;;;5057621;28;20025;-68
2022/01/18 09:23:38;;;;;;;19.42;10.10;;;2.90;95.30;;;;;;5056761;28;20166;-68
2022/01/18 09:26:04;;;;;;;19.88;10.10;;;3.00;96.40;;;;;;5058544;28;20032;-67
2022/01/18 09:28:30;;;;;;;22.83;11.50;;;3.00;97.50;;;;;;5042971;28;20439;-69
2022/01/18 09:31:00;;;;;;;21.20;10.38;;;3.10;97.60;;;;;;5038683;28;20033;-69
2022/01/18 09:33:26;;;;;;;20.75;10.68;;;3.20;98.00;;;;;;5047123;28;20036;-70
2022/01/18 09:35:52;;;;;;;17.88;9.60;;;3.20;98.00;;;;;;5044379;28;20080;-69
2022/01/18 09:38:17;;;;;;;20.58;10.07;;;3.20;98.00;;;;;;5041307;28;20021;-69
2022/01/18 09:40:45;;;;;;;19.63;10.48;;;3.40;98.00;;;;;;5058323;28;20410;-69
2022/01/18 09:43:16;;;;;;;20.50;12.05;;;3.40;98.00;;;;;;5042129;28;20325;-69
2022/01/18 09:45:44;;;;;;;22.33;12.50;;;3.40;98.00;;;;;;5038223;28;20104;-68
2022/01/18 09:48:10;;;;;;;19.35;9.75;;;3.40;98.00;;;;;;5050534;28;20322;-69
2022/01/18 09:50:38;;;;;;;19.30;9.43;;;3.40;98.00;;;;;;5057902;28;20036;-68
2022/01/18 09:53:06;;;;;;;17.23;9.35;;;3.50;98.00;;;;;;5043903;28;20344;-69
2022/01/18 09:55:33;;;;;;;18.27;9.98;;;3.60;98.00;;;;;;5044675;28;20426;-68
2022/01/18 09:58:06;;;;;;;17.92;9.68;;;3.60;98.00;;;;;;5057933;28;20437;-68
2022/01/18 10:00:33;;;;;;;15.23;8.40;;;3.60;98.00;;;;;;5051655;28;20025;-69
2022/01/18 10:03:02;;;;;;;12.77;7.22;;;3.60;98.00;;;;;;5035268;28;20140;-68
2022/01/18 10:05:32;;;;;;;14.70;8.38;;;3.50;98.00;;;;;;5043238;28;20025;-68
2022/01/18 10:08:12;;;;;;;14.45;7.30;;;3.50;98.00;;;;;;5042719;28;20125;-68
2022/01/18 10:10:46;;;;;;;20.55;8.93;;;3.60;98.00;;;;;;5039928;28;20025;-69
2022/01/18 10:13:25;;;;;;;22.42;11.05;;;3.70;98.00;;;;;;5037778;28;20499;-69
2022/01/18 10:16:20;;;;;;;20.55;9.93;;;3.50;98.00;;;;;;5052161;28;20028;-68
2022/01/18 10:18:48;;;;;;;;;;;3.60;98.00;;;;;;5056589;28;20029;-69
2022/01/18 10:21:33;;;;;;;15.38;7.18;;;3.70;98.00;;;;;;5049083;28;20007;-69
2022/01/18 10:24:26;;;;;;;16.10;7.35;;;3.80;98.00;;;;;;5047298;28;20076;-69
2022/01/18 10:26:55;;;;;;;12.80;5.90;;;4.00;98.00;;;;;;5057377;28;20021;-69
2022/01/18 10:29:33;;;;;;;10.60;6.38;;;4.00;98.00;;;;;;5043455;28;20597;-69
2022/01/18 10:32:08;;;;;;;10.73;6.10;;;4.00;98.00;;;;;;5036165;28;20025;-69
2022/01/18 10:35:03;;;;;;;9.88;5.57;;;4.10;98.00;;;;;;5037269;28;20055;-70
2022/01/18 10:37:31;;;;;;;12.15;5.60;;;4.10;98.00;;;;;;5040358;28;20025;-68
2022/01/18 10:40:00;;;;;;;61.35;19.52;;;4.10;98.00;;;;;;5054221;28;20026;-69
2022/01/18 10:42:42;;;;;;;10.32;5.70;;;4.10;98.00;;;;;;5049285;28;20021;-68
2022/01/18 10:45:23;;;;;;;10.93;5.93;;;3.90;98.00;;;;;;5052736;28;20460;-69
2022/01/18 10:48:01;;;;;;;11.43;6.10;;;3.90;98.00;;;;;;5037087;28;20091;-68
2022/01/18 10:50:33;;;;;;;8.77;4.60;;;4.00;98.00;;;;;;5042438;28;20013;-69
2022/01/18 10:53:15;;;;;;;7.80;3.90;;;4.00;98.00;;;;;;5056100;28;20437;-69
2022/01/18 10:55:42;;;;;;;32.20;9.23;;;3.90;98.00;;;;;;5049474;28;20092;-69
2022/01/18 10:58:22;;;;;;;11.85;4.53;;;3.90;98.00;;;;;;5037047;28;20017;-69
2022/01/18 11:00:48;;;;;;;7.90;3.53;;;3.90;98.00;;;;;;5044092;28;20028;-69
2022/01/18 11:03:14;;;;;;;8.70;4.47;;;4.10;98.00;;;;;;5053775;28;20033;-69
2022/01/18 11:05:43;;;;;;;11.10;4.68;;;4.30;98.00;;;;;;5050745;28;20034;-69
2022/01/18 11:08:09;;;;;;;9.20;4.90;;;4.30;98.00;;;;;;5036715;28;20427;-68
2022/01/18 11:10:35;;;;;;;6.80;3.60;;;4.50;98.00;;;;;;5040782;28;20075;-68
2022/01/18 11:13:18;;;;;;;10.48;4.63;;;4.50;98.00;;;;;;5055814;28;20056;-69
2022/01/18 11:16:01;;;;;;;10.05;4.50;;;4.30;98.00;;;;;;5051480;28;20025;-69
2022/01/18 11:18:30;;;;;;;8.57;4.50;;;4.40;98.00;;;;;;5035316;28;20033;-68
2022/01/18 11:21:01;;;;;;;7.53;3.17;;;4.50;98.00;;;;;;5037479;28;20410;-69
2022/01/18 11:23:33;;;;;;;7.97;4.03;;;4.60;98.00;;;;;;5036320;28;20095;-68
2022/01/18 11:25:59;;;;;;;7.25;3.15;;;4.60;98.00;;;;;;5051756;28;20060;-68
2022/01/18 11:28:33;;;;;;;12.77;5.85;;;5.20;98.00;;;;;;5056327;28;20106;-69
2022/01/18 11:31:01;;;;;;;5.40;2.47;;;6.70;98.00;;;;;;5041165;28;20445;-69
2022/01/18 11:33:28;;;;;;;7.10;2.58;;;7.20;92.60;;;;;;5035403;28;20108;-69
2022/01/18 11:36:01;;;;;;;4.93;2.20;;;6.90;91.20;;;;;;5049590;28;20028;-70
2022/01/18 11:38:37;;;;;;;6.45;2.30;;;6.40;92.20;;;;;;5056011;28;20049;-68
2022/01/18 11:41:04;;;;;;;5.75;2.13;;;6.30;93.50;;;;;;5054345;28;20021;-68
2022/01/18 11:43:37;;;;;;;4.97;2.50;;;6.10;93.00;;;;;;5056114;28;20025;-69
2022/01/18 11:46:45;;;;;;;6.25;2.60;;;5.90;93.20;;;;;;5042451;28;20030;-69
2022/01/18 11:49:19;;;;;;;8.23;2.50;;;5.80;94.70;;;;;;5039363;28;20090;-69
2022/01/18 11:51:49;;;;;;;5.10;2.40;;;5.40;94.50;;;;;;5054089;28;20029;-69
2022/01/18 11:57:24;;;;;;;6.47;2.75;;;5.00;95.20;;;;;;5036277;28;20426;-69
2022/01/18 11:59:51;;;;;;;6.70;2.80;;;5.00;95.90;;;;;;5050316;28;20029;-69
2022/01/18 12:02:29;;;;;;;5.18;2.00;;;4.80;96.30;;;;;;5053773;28;20114;-68
2022/01/18 12:04:57;;;;;;;4.93;2.30;;;4.80;96.80;;;;;;5051237;28;20057;-68
2022/01/18 12:08:00;;;;;;;4.85;2.03;;;5.10;97.60;;;;;;5055656;28;20394;-68
2022/01/18 12:10:33;;;;;;;6.50;2.72;;;5.80;95.00;;;;;;5048021;28;20041;-69
2022/01/18 12:13:10;;;;;;;4.50;1.85;;;6.10;94.60;;;;;;5042243;28;20317;-69
2022/01/18 12:15:50;;;;;;;4.90;1.67;;;6.30;94.00;;;;;;5035959;28;20044;-70
2022/01/18 12:18:17;;;;;;;5.75;1.83;;;7.00;92.80;;;;;;5033517;28;20426;-69
2022/01/18 12:20:48;;;;;;;3.65;1.52;;;7.50;90.10;;;;;;5054845;28;20032;-69
2022/01/18 12:23:21;;;;;;;4.10;1.55;;;7.20;89.00;;;;;;5049531;28;20430;-69
2022/01/18 12:26:15;;;;;;;4.07;1.88;;;7.40;90.00;;;;;;5045390;28;20109;-68
2022/01/18 12:29:18;;;;;;;4.60;1.50;;;7.20;88.80;;;;;;5047731;28;20032;-69
2022/01/18 12:34:33;;;;;;;4.05;1.70;;;7.40;90.60;;;;;;5047036;28;20083;-68
2022/01/18 12:37:08;;;;;;;4.95;2.00;;;7.80;88.20;;;;;;5052300;28;20029;-68
2022/01/18 12:40:05;;;;;;;4.75;1.80;;;7.60;87.30;;;;;;5035689;28;20079;-68
2022/01/18 12:45:33;;;;;;;4.25;1.75;;;8.30;85.80;;;;;;5053826;28;20064;-68
2022/01/18 12:48:04;;;;;;;5.63;1.90;;;7.80;86.00;;;;;;5034372;28;20151;-68
2022/01/18 12:50:38;;;;;;;4.32;2.00;;;6.80;87.30;;;;;;5037055;28;20037;-69
2022/01/18 12:53:13;;;;;;;4.47;2.00;;;6.50;90.20;;;;;;5046360;28;20415;-68
2022/01/18 12:55:46;;;;;;;5.63;2.65;;;6.20;90.40;;;;;;5037254;28;20112;-68
2022/01/18 12:58:31;;;;;;;6.25;2.10;;;6.00;92.20;;;;;;5046375;28;20033;-68
2022/01/18 13:01:08;;;;;;;5.38;1.98;;;5.90;92.00;;;;;;5047130;28;20299;-69
2022/01/18 13:03:45;;;;;;;5.95;2.20;;;6.00;92.20;;;;;;5054002;28;20028;-68
2022/01/18 13:06:13;;;;;;;6.20;2.15;;;6.10;90.60;;;;;;5054572;28;20053;-69
2022/01/18 13:08:41;;;;;;;7.25;2.30;;;6.00;92.00;;;;;;5054420;28;20488;-68
2022/01/18 13:11:09;;;;;;;7.50;2.30;;;5.90;91.60;;;;;;5050545;28;20033;-68
2022/01/18 13:13:35;;;;;;;6.10;2.35;;;5.70;91.80;;;;;;5047431;28;20053;-68
2022/01/18 13:27:01;;;;;;;7.00;2.70;;;5.70;92.20;;;;;;5043094;28;20722;-69
2022/01/18 13:29:28;;;;;;;7.47;2.92;;;5.50;92.30;;;;;;5038588;28;20025;-68
2022/01/18 13:32:32;;;;;;;5.90;2.45;;;5.30;93.40;;;;;;5050438;28;20048;-69
2022/01/18 13:34:58;;;;;;;8.27;3.60;;;5.30;93.30;;;;;;5056860;28;20045;-69
2022/01/18 13:37:30;;;;;;;7.10;2.72;;;5.50;92.40;;;;;;5038363;28;20287;-69
2022/01/18 13:40:03;;;;;;;5.95;2.35;;;5.60;92.00;;;;;;5039067;28;20094;-68
2022/01/18 13:42:43;;;;;;;5.45;2.40;;;5.60;92.20;;;;;;5056585;28;20079;-68
2022/01/18 13:45:19;;;;;;;6.55;2.50;;;5.50;92.20;;;;;;5056088;28;20036;-69
2022/01/18 13:48:00;;;;;;;5.30;2.58;;;5.50;92.60;;;;;;5035973;28;20025;-68
2022/01/18 13:50:48;;;;;;;4.88;2.55;;;5.40;93.10;;;;;;5040827;28;20028;-68
2022/01/18 13:53:28;;;;;;;6.43;2.78;;;5.40;91.90;;;;;;5037354;28;20022;-69
2022/01/18 13:56:10;;;;;;;7.32;3.20;;;5.40;92.40;;;;;;5037797;28;20303;-68
2022/01/18 13:58:43;;;;;;;8.27;3.40;;;5.20;92.30;;;;;;5037011;28;20349;-69
2022/01/18 14:01:17;;;;;;;8.05;3.20;;;5.10;92.30;;;;;;5054689;28;20017;-68
2022/01/18 14:03:46;;;;;;;6.20;2.92;;;5.00;92.90;;;;;;5056836;28;20025;-68
2022/01/18 14:06:14;;;;;;;7.43;3.20;;;4.90;93.60;;;;;;5040646;28;20578;-68
2022/01/18 14:08:48;;;;;;;7.90;2.90;;;4.80;93.40;;;;;;5043231;28;20470;-68
2022/01/18 14:11:22;;;;;;;8.93;3.40;;;4.80;93.90;;;;;;5057885;28;20025;-68
2022/01/18 14:13:49;;;;;;;6.78;3.40;;;4.70;93.40;;;;;;5050516;28;20052;-69
2022/01/18 14:16:30;;;;;;;6.90;3.20;;;4.60;93.70;;;;;;5038030;28;20364;-68
2022/01/18 14:18:57;;;;;;;10.15;4.03;;;4.60;94.90;;;;;;5045078;28;20021;-69
2022/01/18 14:21:38;;;;;;;7.90;3.72;;;4.60;94.80;;;;;;5053441;28;20024;-68
2022/01/18 14:24:08;;;;;;;6.10;3.00;;;4.60;95.20;;;;;;5036641;28;20107;-69
2022/01/18 14:26:35;;;;;;;6.57;3.78;;;4.50;94.70;;;;;;5044693;28;20032;-69